Flight Track Log - Related Links

Times and Time Zones

All times are in EDT time to prevent confusion due to time zone crossing. See the GJS3627 flight status page for this flight to view local times or setup timezone preferences in your user account.

Time Position Orientation Groundspeed Altitude Reporting Facility
EDT Latitude Longitude Course Direction KTS MPH feet Rate Location/Type
Sun 09:45:53 AM 30.4736 -81.6753 75° East 155 178 600  Level Jacksonville Center
Sun 09:46:35 AM 30.4817 -81.6414 75° East 196 226 1,800 1,922 Climbing Jacksonville Center
Sun 09:47:36 AM 30.5378 -81.6217 17° North 253 291 3,900 2,410 Climbing Jacksonville Center
Sun 09:48:37 AM 30.6131 -81.6156 North 268 308 6,700 2,504 Climbing Jacksonville Center
Sun 09:49:43 AM 30.6967 -81.6267 353° North 287 330 9,200 2,048 Climbing Jacksonville Center
Sun 09:50:43 AM 30.7719 -81.6378 353° North 302 348 11,000 1,850 Climbing Jacksonville Center
Sun 09:51:43 AM 30.8681 -81.6511 353° North 325 374 12,900 2,150 Climbing Jacksonville Center
Sun 09:52:43 AM 30.9642 -81.6594 356° North 336 387 15,300 2,350 Climbing Jacksonville Center
Sun 09:53:43 AM 31.0581 -81.6558 North 342 394 17,600 1,950 Climbing Jacksonville Center
Sun 09:54:43 AM 31.1517 -81.6156 20° North 342 394 19,200 1,550 Climbing Jacksonville Center
Sun 09:55:43 AM 31.2514 -81.5778 18° North 354 407 20,700 1,550 Climbing Jacksonville Center
Sun 09:56:43 AM 31.3594 -81.5300 21° North 366 421 22,300 1,400 Climbing Jacksonville Center
Sun 09:57:43 AM 31.4572 -81.4897 19° North 391 450 23,500 1,250 Climbing Jacksonville Center
Sun 09:58:43 AM 31.5758 -81.4392 20° North 405 466 24,800 1,500 Climbing Jacksonville Center
Sun 09:59:43 AM 31.6797 -81.3961 19° North 399 459 26,500 1,550 Climbing Jacksonville Center
Sun 10:00:43 AM 31.7772 -81.3553 20° North 404 465 27,900 1,450 Climbing Jacksonville Center
Sun 10:01:43 AM 31.8831 -81.3119 19° North 404 465 29,400 1,600 Climbing Jacksonville Center
Sun 10:02:43 AM 31.9972 -81.2611 21° North 397 457 31,100 1,350 Climbing Jacksonville Center
Sun 10:03:43 AM 32.1033 -81.2200 18° North 390 449 32,100 1,000 Climbing Jacksonville Center
Sun 10:04:43 AM 32.2050 -81.1739 21° North 384 442 33,100 950 Climbing Jacksonville Center
Sun 10:05:43 AM 32.3086 -81.1228 23° Northeast 397 457 34,000 650 Climbing Jacksonville Center
Sun 10:06:43 AM 32.4122 -81.0642 26° Northeast 402 463 34,400 350 Climbing Jacksonville Center
Sun 10:07:43 AM 32.5178 -81.0006 27° Northeast 414 476 34,700 300 Climbing Jacksonville Center
Sun 10:08:43 AM 32.6275 -80.9364 26° Northeast 427 491 35,000 150 Climbing Jacksonville Center
Sun 10:09:43 AM 32.7411 -80.8697 26° Northeast 435 501 35,000 -50 Level Jacksonville Center
Sun 10:10:43 AM 32.8569 -80.8006 27° Northeast 446 513 34,900  Descending Jacksonville Center
Sun 10:11:43 AM 32.9728 -80.7333 26° Northeast 451 519 35,000 100 Climbing Jacksonville Center
Sun 10:12:43 AM 33.0906 -80.6636 26° Northeast 462 532 35,100 800 Climbing Jacksonville Center
Sun 10:13:43 AM 33.2019 -80.5964 27° Northeast 457 526 36,600 1,150 Climbing Jacksonville Center
Sun 10:14:43 AM 33.3114 -80.5289 27° Northeast 452 520 37,400 750 Climbing Jacksonville Center
Sun 10:15:43 AM 33.4208 -80.4636 26° Northeast 445 512 38,100 650 Climbing Jacksonville Center
Sun 10:16:43 AM 33.5281 -80.3986 27° Northeast 435 501 38,700 450 Climbing Jacksonville Center
Sun 10:17:43 AM 33.6353 -80.3331 27° Northeast 430 495 39,000 150 Climbing Jacksonville Center
Sun 10:18:43 AM 33.7381 -80.2678 28° Northeast 424 488 39,000  Level Jacksonville Center
Sun 10:19:43 AM 33.8475 -80.2044 26° Northeast 424 488 39,000  Level Jacksonville Center
Sun 10:20:43 AM 33.9503 -80.1386 28° Northeast 419 482 39,000  Level Jacksonville Center
Sun 10:21:43 AM 34.0575 -80.0753 26° Northeast 419 482 39,000  Level Jacksonville Center
Sun 10:22:43 AM 34.1603 -80.0117 27° Northeast 419 482 39,000  Level Jacksonville Center
Sun 10:23:43 AM 34.2672 -79.9453 27° Northeast 419 482 39,000  Level Jacksonville Center
Sun 10:26:09 AM 34.5156 -79.7886 27° Northeast 418 481 39,000  Level Washington Center
Sun 10:27:08 AM 34.6222 -79.7208 28° Northeast 423 487 39,000  Level Washington Center
Sun 10:28:08 AM 34.7308 -79.6556 26° Northeast 423 487 39,000  Level Washington Center
Sun 10:29:08 AM 34.8394 -79.5878 27° Northeast 423 487 39,000  Level Washington Center
Sun 10:30:07 AM 34.9461 -79.5219 27° Northeast 428 493 39,000  Level Washington Center
Sun 10:31:08 AM 35.0547 -79.4536 27° Northeast 428 493 39,000  Level Washington Center
Sun 10:32:09 AM 35.1653 -79.3828 28° Northeast 433 498 39,000  Level Washington Center
Sun 10:33:09 AM 35.2547 -79.3283 26° Northeast 439 505 39,000  Level Washington Center
Sun 10:34:09 AM 35.3889 -79.2406 28° Northeast 451 519 39,000  Level Washington Center
Sun 10:35:07 AM 35.4975 -79.1714 27° Northeast 446 513 39,000  Level Washington Center
Sun 10:36:08 AM 35.5953 -79.1094 27° Northeast 440 506 39,000  Level Washington Center
Sun 10:37:09 AM 35.7078 -79.0403 27° Northeast 440 506 39,000  Level Washington Center
Sun 10:38:09 AM 35.8206 -78.9656 28° Northeast 445 512 39,000 -200 Level Washington Center
Sun 10:39:09 AM 35.9311 -78.8933 28° Northeast 445 512 38,600 -1,765 Descending Washington Center
Sun 10:40:08 AM 36.0436 -78.8211 27° Northeast 445 512 35,500 -3,076 Descending Washington Center
Sun 10:41:08 AM 36.1647 -78.7436 27° Northeast 453 521 32,500 -3,025 Descending Washington Center
Sun 10:42:07 AM 36.2858 -78.6608 29° Northeast 475 547 29,500 -2,723 Descending Washington Center
Sun 10:43:07 AM 36.4025 -78.5856 27° Northeast 481 554 27,100 -1,230 Descending Washington Center
Sun 10:44:09 AM 36.5169 -78.5072 29° Northeast 476 548 27,000 -49 Descending Washington Center
Sun 10:45:10 AM 36.6356 -78.4314 27° Northeast 471 542 27,000  Level Washington Center
Sun 10:46:07 AM 36.7628 -78.3453 28° Northeast 471 542 27,000 -154 Level Washington Center
Sun 10:47:07 AM 36.8772 -78.2689 28° Northeast 466 536 26,700 -645 Descending Washington Center
Sun 10:48:08 AM 36.9853 -78.1947 29° Northeast 471 542 25,700 -992 Descending Washington Center
Sun 10:49:08 AM 37.1100 -78.1128 28° Northeast 466 536 24,700 -992 Descending Washington Center
Sun 10:50:09 AM 37.2283 -78.0411 26° Northeast 461 531 23,700 -1,008 Descending Washington Center
Sun 10:51:07 AM 37.3467 -77.9667 27° Northeast 461 531 22,700 -864 Descending Washington Center
Sun 10:52:07 AM 37.4628 -77.8944 26° Northeast 461 531 22,000 -1,100 Descending Washington Center
Sun 10:53:07 AM 37.5769 -77.8244 26° Northeast 456 525 20,500 -1,736 Descending Washington Center
Sun 10:54:08 AM 37.6886 -77.7567 26° Northeast 456 525 18,500 -1,884 Descending Washington Center
Sun 10:55:08 AM 37.7942 -77.6861 28° Northeast 444 511 16,700 -1,866 Descending Washington Center
Sun 10:56:07 AM 37.8953 -77.6258 25° Northeast 420 483 14,800 -1,750 Descending Washington Center
Sun 10:57:08 AM 37.9861 -77.5678 27° Northeast 389 448 13,200 -1,587 Descending Washington Center
Sun 10:58:08 AM 38.0764 -77.5172 24° Northeast 363 418 11,600 -1,438 Descending Washington Center
Sun 10:59:09 AM 38.1608 -77.4614 27° Northeast 346 398 10,300 -1,388 Descending Washington Center
Sun 11:00:09 AM 38.2386 -77.4131 26° Northeast 324 373 8,800 -1,627 Descending Washington Center
Sun 11:01:07 AM 38.3144 -77.3700 24° Northeast 305 351 7,100 -1,729 Descending Washington Center
Sun 11:02:07 AM 38.3939 -77.3586 North 285 328 5,400 -992 Descending Washington Center
Sun 11:03:08 AM 38.4708 -77.3606 359° North 279 321 5,100 -590 Descending Washington Center
Sun 11:04:09 AM 38.5481 -77.3650 357° North 273 314 4,200 -500 Descending Washington Center
Sun 11:05:08 AM 38.6231 -77.3667 359° North 273 314 4,100 -65 Descending Washington Center
Sun 11:05:42 AM 38.6667 -77.3667 360° North 270 311 4,100  Level Potomac TRACON
Sun 11:06:42 AM 38.7500 -77.3500 North 270 311 4,100  Level Potomac TRACON
Sun 11:07:36 AM 38.8167 -77.3500 360° North 261 300 4,100  Level Potomac TRACON
Sun 11:08:30 AM 38.8667 -77.3500 360° North 238 274 4,100  Level Potomac TRACON
Sun 11:09:30 AM 38.9333 -77.3500 360° North 242 278 4,100  Level Potomac TRACON
Sun 11:10:30 AM 39.0000 -77.3500 360° North 246 283 4,100  Level Potomac TRACON
Sun 11:11:30 AM 39.0833 -77.3500 360° North 246 283 4,100  Level Potomac TRACON
Sun 11:12:30 AM 39.1500 -77.3500 360° North 248 285 4,100  Level Potomac TRACON
Sun 11:13:24 AM 39.2000 -77.3500 360° North 248 285 4,100  Level Potomac TRACON
Sun 11:14:24 AM 39.2667 -77.3500 360° North 245 282 4,100 -250 Level Potomac TRACON
Sun 11:15:24 AM 39.2833 -77.4333 285° West 227 261 3,600 -526 Descending Potomac TRACON
Sun 11:16:18 AM 39.2500 -77.4500 201° Southwest 236 272 3,100 -522 Descending Potomac TRACON
Sun 11:17:19 AM 39.1833 -77.4333 169° South 219 252 2,600 -248 Descending Potomac TRACON
Sun 11:18:19 AM 39.1333 -77.4333 180° South 220 253 2,600  Level Potomac TRACON
Sun 11:19:19 AM 39.0667 -77.4333 180° South 204 235 2,600 -474 Level Potomac TRACON
Sun 11:20:13 AM 39.0167 -77.4333 180° South 185 213 1,700 -895 Descending Potomac TRACON
Sun 11:21:13 AM 38.9833 -77.4333 180° South 136 157 900 -800 Descending Potomac TRACON
Sun 11:23:00 AM 38.9474 -77.4599 195° South  Level Estimated
Sun 11:30:00 AM 38.9474 -77.4599 195° South  Level Estimated
Sun 11:31:00 AM 38.9474 -77.4599 195° South  Level Estimated

Login

Don't have an account? Register now (free) for customized features, flight alerts, and more!